createdAt,value
2022-09-28T00:02:12.345Z,100.00
2022-09-28T00:04:38.804Z,100.00
2022-09-28T00:07:05.186Z,100.00
2022-09-28T00:09:31.587Z,100.00
2022-09-28T00:11:58.022Z,100.00
2022-09-28T00:14:25.129Z,100.00
2022-09-28T00:16:51.569Z,100.00
2022-09-28T00:19:19.270Z,100.00
2022-09-28T00:21:45.995Z,100.00
2022-09-28T00:24:15.595Z,100.00
2022-09-28T00:26:54.155Z,100.00
2022-09-28T00:29:23.727Z,100.00
2022-09-28T00:32:02.411Z,100.00
2022-09-28T00:34:31.958Z,100.00
2022-09-28T00:36:59.329Z,100.00
2022-09-28T00:39:27.071Z,100.00
2022-09-28T00:41:54.451Z,100.00
2022-09-28T00:44:26.711Z,100.00
2022-09-28T00:47:14.788Z,100.00
2022-09-28T00:49:53.734Z,100.00
2022-09-28T00:52:35.017Z,100.00
2022-09-28T00:55:05.887Z,100.00
2022-09-28T00:57:32.702Z,100.00
2022-09-28T01:00:01.252Z,100.00
2022-09-28T01:02:27.895Z,100.00
2022-09-28T01:04:55.483Z,100.00
2022-09-28T01:07:22.551Z,100.00
2022-09-28T01:09:49.834Z,100.00
2022-09-28T01:12:16.250Z,100.00
2022-09-28T01:14:43.616Z,100.00
2022-09-28T01:17:42.204Z,100.00
2022-09-28T01:20:20.953Z,100.00
2022-09-28T01:23:28.522Z,100.00
2022-09-28T01:26:09.760Z,100.00
2022-09-28T01:28:36.395Z,100.00
2022-09-28T01:31:11.165Z,100.00
2022-09-28T01:33:42.203Z,100.00
2022-09-28T01:36:33.238Z,100.00
2022-09-28T01:39:09.059Z,100.00
2022-09-28T01:41:36.774Z,100.00
2022-09-28T01:44:06.157Z,100.00
2022-09-28T01:46:44.683Z,100.00
2022-09-28T01:49:16.140Z,100.00
2022-09-28T01:51:51.114Z,100.00
2022-09-28T01:54:28.108Z,100.00
2022-09-28T01:57:00.314Z,100.00
2022-09-28T01:59:31.011Z,100.00
2022-09-28T02:02:18.795Z,100.00
2022-09-28T02:04:50.174Z,100.00
2022-09-28T02:07:22.582Z,100.00
2022-09-28T02:09:57.810Z,100.00
2022-09-28T02:12:39.607Z,100.00
2022-09-28T02:15:14.781Z,100.00
2022-09-28T02:17:41.740Z,100.00
2022-09-28T02:20:08.980Z,100.00
2022-09-28T02:22:56.279Z,100.00
2022-09-28T02:25:31.064Z,100.00
2022-09-28T02:28:01.242Z,100.00
2022-09-28T02:30:32.443Z,100.00
2022-09-28T02:33:05.893Z,100.00
2022-09-28T02:35:34.860Z,100.00
2022-09-28T02:38:02.579Z,100.00
2022-09-28T02:40:33.377Z,100.00
2022-09-28T02:43:32.643Z,100.00
2022-09-28T02:46:25.849Z,100.00
2022-09-28T02:49:25.769Z,100.00
2022-09-28T02:52:13.662Z,100.00
2022-09-28T02:55:07.231Z,100.00
2022-09-28T02:58:11.601Z,100.00
2022-09-28T03:00:47.480Z,100.00
2022-09-28T03:03:25.406Z,100.00
2022-09-28T03:06:04.269Z,100.00
2022-09-28T03:08:42.806Z,100.00
2022-09-28T03:11:20.698Z,100.00
2022-09-28T03:13:50.824Z,100.00
2022-09-28T03:16:20.091Z,100.00
2022-09-28T03:18:48.756Z,100.00
2022-09-28T03:21:16.120Z,100.00
2022-09-28T03:23:43.129Z,100.00
2022-09-28T03:26:14.139Z,100.00
2022-09-28T03:28:41.045Z,100.00
2022-09-28T03:31:11.375Z,100.00
2022-09-28T03:33:37.839Z,100.00
2022-09-28T03:36:04.349Z,100.00
2022-09-28T03:38:30.855Z,100.00
2022-09-28T03:41:00.181Z,100.00
2022-09-28T03:43:31.077Z,100.00
2022-09-28T03:46:00.816Z,100.00
2022-09-28T03:48:33.240Z,100.00
2022-09-28T03:51:01.615Z,100.00
2022-09-28T03:53:29.696Z,100.00
2022-09-28T03:56:01.895Z,100.00
2022-09-28T03:58:28.814Z,100.00
2022-09-28T04:00:55.305Z,100.00
2022-09-28T04:03:21.803Z,100.00
2022-09-28T04:05:53.227Z,100.00
2022-09-28T04:08:20.159Z,100.00
2022-09-28T04:10:47.201Z,100.00
2022-09-28T04:13:13.924Z,100.00
2022-09-28T04:15:41.307Z,100.00
2022-09-28T04:18:12.269Z,100.00
2022-09-28T04:21:06.657Z,100.00
2022-09-28T04:23:39.114Z,100.00
2022-09-28T04:26:11.647Z,100.00
2022-09-28T04:28:56.964Z,100.00
2022-09-28T04:31:24.437Z,100.00
2022-09-28T04:33:51.086Z,100.00
2022-09-28T04:36:19.640Z,100.00
2022-09-28T04:38:53.204Z,100.00
2022-09-28T04:41:22.595Z,100.00
2022-09-28T04:43:50.411Z,100.00
2022-09-28T04:46:16.949Z,100.00
2022-09-28T04:48:53.512Z,100.00
2022-09-28T04:51:32.002Z,100.00
2022-09-28T04:53:58.787Z,100.00
2022-09-28T04:56:25.341Z,100.00
2022-09-28T04:58:52.859Z,100.00
2022-09-28T05:01:23.358Z,100.00
2022-09-28T05:03:58.978Z,100.00
2022-09-28T05:06:38.160Z,100.00
2022-09-28T05:09:06.588Z,100.00
2022-09-28T05:11:34.298Z,100.00
2022-09-28T05:14:01.534Z,100.00
2022-09-28T05:16:29.861Z,100.00
2022-09-28T05:19:25.484Z,100.00
2022-09-28T05:21:53.315Z,100.00
2022-09-28T05:24:19.723Z,100.00
2022-09-28T05:26:50.983Z,100.00
2022-09-28T05:29:17.686Z,100.00
2022-09-28T05:32:02.853Z,100.00
2022-09-28T05:34:46.698Z,100.00
2022-09-28T05:37:19.159Z,100.00
2022-09-28T05:39:46.607Z,100.00
2022-09-28T05:42:13.053Z,100.00
2022-09-28T05:44:39.455Z,100.00
2022-09-28T05:47:05.876Z,100.00
2022-09-28T05:49:32.501Z,100.00
2022-09-28T05:52:00.456Z,100.00
2022-09-28T05:54:27.542Z,100.00
2022-09-28T05:56:53.966Z,100.00
2022-09-28T05:59:20.416Z,100.00
2022-09-28T06:01:46.848Z,100.00
2022-09-28T06:04:16.034Z,100.00
2022-09-28T06:06:43.496Z,100.00
2022-09-28T06:09:10.047Z,100.00
2022-09-28T06:12:02.004Z,100.00
2022-09-28T06:14:49.167Z,100.00
2022-09-28T06:17:15.589Z,100.00
2022-09-28T06:19:44.946Z,100.00
2022-09-28T06:22:45.785Z,100.00
2022-09-28T06:25:12.547Z,100.00
2022-09-28T06:27:40.559Z,100.00
2022-09-28T06:30:07.515Z,100.00
2022-09-28T06:32:33.918Z,100.00
2022-09-28T06:35:00.344Z,100.00
2022-09-28T06:37:27.634Z,100.00
2022-09-28T06:39:54.925Z,100.00
2022-09-28T06:42:21.980Z,100.00
2022-09-28T06:45:07.876Z,100.00
2022-09-28T06:47:43.552Z,100.00
2022-09-28T06:50:34.386Z,100.00
2022-09-28T06:53:13.988Z,100.00
2022-09-28T06:55:53.426Z,100.00
2022-09-28T06:58:20.904Z,100.00
2022-09-28T07:00:50.069Z,100.00
2022-09-28T07:03:19.839Z,100.00
2022-09-28T07:06:04.823Z,99.44
2022-09-28T07:09:05.653Z,97.05
2022-09-28T07:11:58.543Z,94.92
2022-09-28T07:14:46.914Z,95.84
2022-09-28T07:17:15.069Z,95.10
2022-09-28T07:19:42.673Z,92.38
2022-09-28T07:22:18.405Z,93.28
2022-09-28T07:24:46.853Z,93.95
2022-09-28T07:27:32.138Z,93.56
2022-09-28T07:30:35.376Z,95.07
2022-09-28T07:33:15.811Z,94.25
2022-09-28T07:36:08.636Z,92.77
2022-09-28T07:38:35.126Z,92.04
2022-09-28T07:41:14.802Z,93.65
2022-09-28T07:43:45.213Z,93.25
2022-09-28T07:46:14.790Z,90.95
2022-09-28T07:48:49.466Z,92.20
2022-09-28T07:51:24.059Z,93.11
2022-09-28T07:54:15.154Z,90.73
2022-09-28T07:57:06.888Z,93.66
2022-09-28T07:59:40.591Z,94.02
2022-09-28T08:02:25.725Z,94.00
2022-09-28T08:04:52.900Z,93.28
2022-09-28T08:07:23.666Z,93.46
2022-09-28T08:09:56.906Z,95.07
2022-09-28T08:12:26.231Z,93.99
2022-09-28T08:15:14.397Z,93.19
2022-09-28T08:17:49.262Z,91.32
2022-09-28T08:20:36.773Z,93.78
2022-09-28T08:23:08.650Z,91.08
2022-09-28T08:25:39.534Z,92.47
2022-09-28T08:28:07.295Z,91.77
2022-09-28T08:30:38.423Z,92.74
2022-09-28T08:33:20.263Z,93.36
2022-09-28T08:35:47.658Z,91.93
2022-09-28T08:38:27.750Z,92.65
2022-09-28T08:41:18.964Z,91.05
2022-09-28T08:44:12.009Z,92.77
2022-09-28T08:47:06.271Z,92.56
2022-09-28T08:50:05.217Z,92.57
2022-09-28T08:52:48.016Z,91.27
2022-09-28T08:55:32.280Z,89.82
2022-09-28T08:58:13.905Z,89.99
2022-09-28T09:00:52.913Z,90.09
2022-09-28T09:03:23.755Z,89.22
2022-09-28T09:06:35.260Z,85.22
2022-09-28T09:09:34.035Z,85.92
2022-09-28T09:12:10.195Z,86.01
2022-09-28T09:15:09.512Z,83.34
2022-09-28T09:17:47.706Z,83.03
2022-09-28T09:20:55.431Z,86.26
2022-09-28T09:23:31.822Z,82.75
2022-09-28T09:26:08.727Z,82.80
2022-09-28T09:29:21.691Z,79.12
2022-09-28T09:32:08.002Z,79.87
2022-09-28T09:35:18.785Z,77.89
2022-09-28T09:38:27.798Z,78.91
2022-09-28T09:41:38.344Z,81.43
2022-09-28T09:45:01.682Z,78.81
2022-09-28T09:48:10.654Z,79.83
2022-09-28T09:50:40.628Z,80.45
2022-09-28T09:53:42.192Z,79.54
2022-09-28T09:56:16.055Z,79.64
2022-09-28T09:59:11.564Z,79.19
2022-09-28T10:01:56.579Z,77.27
2022-09-28T10:04:39.468Z,79.82
2022-09-28T10:07:22.116Z,78.07
2022-09-28T10:09:51.800Z,78.06
2022-09-28T10:12:26.430Z,78.56
2022-09-28T10:14:55.225Z,78.86
2022-09-28T10:17:27.635Z,77.80
2022-09-28T10:20:20.252Z,77.10
2022-09-28T10:23:02.112Z,77.87
2022-09-28T10:25:33.879Z,78.12
2022-09-28T10:28:02.904Z,76.99
2022-09-28T10:30:36.993Z,78.18
2022-09-28T10:33:03.662Z,78.91
2022-09-28T10:35:42.186Z,77.44
2022-09-28T10:38:17.229Z,76.85
2022-09-28T10:40:55.729Z,78.02
2022-09-28T10:43:35.003Z,78.89
2022-09-28T10:46:14.982Z,80.15
2022-09-28T10:48:54.784Z,81.88
2022-09-28T10:51:42.395Z,83.58
2022-09-28T10:54:16.767Z,85.81
2022-09-28T10:56:50.187Z,86.61
2022-09-28T10:59:36.904Z,86.80
2022-09-28T11:02:35.453Z,89.50
2022-09-28T11:05:25.751Z,87.13
2022-09-28T11:07:55.868Z,88.89
2022-09-28T11:10:30.986Z,88.61
2022-09-28T11:13:03.190Z,89.22
2022-09-28T11:15:33.070Z,87.97
2022-09-28T11:18:24.018Z,89.07
2022-09-28T11:20:50.465Z,89.43
2022-09-28T11:23:30.393Z,91.64
2022-09-28T11:26:06.426Z,91.52
2022-09-28T11:28:35.324Z,89.85
2022-09-28T11:31:08.118Z,92.20
2022-09-28T11:34:04.138Z,89.49
2022-09-28T11:36:46.183Z,91.62
2022-09-28T11:39:27.063Z,94.77
2022-09-28T11:42:07.242Z,93.03
2022-09-28T11:44:48.811Z,93.62
2022-09-28T11:47:45.304Z,92.74
2022-09-28T11:50:22.970Z,93.61
2022-09-28T11:52:59.363Z,91.21
2022-09-28T11:55:42.205Z,91.63
2022-09-28T11:58:24.517Z,89.17
2022-09-28T12:00:59.212Z,87.72
2022-09-28T12:03:49.017Z,86.28
2022-09-28T12:06:20.261Z,86.31
2022-09-28T12:08:56.281Z,86.00
2022-09-28T12:11:45.403Z,85.37
2022-09-28T12:14:35.603Z,85.71
2022-09-28T12:17:39.456Z,86.22
2022-09-28T12:20:26.151Z,87.69
2022-09-28T12:23:11.129Z,81.22
2022-09-28T12:25:46.691Z,83.20
2022-09-28T12:28:24.160Z,84.27
2022-09-28T12:30:52.776Z,84.94
2022-09-28T12:33:19.275Z,85.34
2022-09-28T12:36:04.823Z,84.21
2022-09-28T12:38:40.279Z,81.31
2022-09-28T12:41:19.814Z,81.17
2022-09-28T12:44:08.405Z,81.65
2022-09-28T12:46:59.276Z,82.01
2022-09-28T12:50:37.584Z,81.61
2022-09-28T12:53:15.144Z,82.08
2022-09-28T12:55:58.241Z,81.66
2022-09-28T12:59:01.050Z,79.46
2022-09-28T13:02:18.925Z,79.52
2022-09-28T13:04:51.319Z,79.04
2022-09-28T13:07:49.877Z,79.80
2022-09-28T13:10:33.147Z,79.15
2022-09-28T13:13:15.888Z,76.32
2022-09-28T13:15:48.238Z,75.10
2022-09-28T13:18:20.696Z,75.32
2022-09-28T13:21:08.930Z,74.73
2022-09-28T13:23:40.255Z,72.83
2022-09-28T13:26:22.674Z,73.47
2022-09-28T13:28:54.627Z,75.10
2022-09-28T13:31:30.877Z,72.32
2022-09-28T13:34:01.664Z,72.35
2022-09-28T13:36:28.039Z,73.29
2022-09-28T13:38:56.778Z,74.62
2022-09-28T13:41:29.118Z,74.18
2022-09-28T13:44:17.093Z,75.30
2022-09-28T13:47:08.489Z,75.24
2022-09-28T13:49:56.595Z,74.43
2022-09-28T13:52:52.092Z,73.36
2022-09-28T13:55:37.119Z,75.00
2022-09-28T13:58:26.023Z,75.89
2022-09-28T14:01:14.963Z,74.89
2022-09-28T14:03:52.604Z,76.26
2022-09-28T14:06:27.088Z,75.26
2022-09-28T14:09:15.796Z,75.12
2022-09-28T14:11:58.936Z,76.34
2022-09-28T14:14:49.777Z,77.21
2022-09-28T14:17:19.128Z,77.16
2022-09-28T14:19:51.846Z,76.72
2022-09-28T14:22:29.175Z,77.25
2022-09-28T14:25:13.567Z,76.77
2022-09-28T14:27:57.473Z,78.77
2022-09-28T14:30:27.382Z,76.02
2022-09-28T14:32:57.867Z,77.86
2022-09-28T14:35:58.773Z,80.54
2022-09-28T14:38:55.680Z,76.41
2022-09-28T14:41:34.542Z,82.19
2022-09-28T14:44:09.083Z,76.67
2022-09-28T14:46:46.062Z,74.33
2022-09-28T14:49:32.552Z,76.01
2022-09-28T14:52:02.900Z,75.94
2022-09-28T14:54:45.216Z,76.45
2022-09-28T14:57:21.120Z,76.55
2022-09-28T14:59:48.086Z,76.60
2022-09-28T15:02:24.980Z,76.48
2022-09-28T15:05:00.913Z,77.39
2022-09-28T15:07:46.067Z,77.91
2022-09-28T15:10:33.059Z,77.52
2022-09-28T15:13:23.873Z,80.26
2022-09-28T15:15:54.486Z,81.21
2022-09-28T15:18:43.861Z,79.69
2022-09-28T15:21:12.159Z,80.47
2022-09-28T15:23:41.689Z,80.91
2022-09-28T15:26:21.732Z,80.78
2022-09-28T15:28:48.164Z,81.07
2022-09-28T15:31:20.416Z,81.39
2022-09-28T15:34:06.112Z,81.83
2022-09-28T15:36:46.322Z,82.57
2022-09-28T15:39:29.627Z,83.85
2022-09-28T15:41:56.427Z,84.51
2022-09-28T15:44:32.920Z,84.97
2022-09-28T15:47:09.672Z,86.00
2022-09-28T15:49:46.434Z,87.37
2022-09-28T15:52:35.269Z,88.08
2022-09-28T15:55:06.097Z,87.91
2022-09-28T15:57:39.160Z,91.99
2022-09-28T16:00:20.835Z,90.84
2022-09-28T16:03:08.899Z,92.41
2022-09-28T16:05:57.272Z,93.54
2022-09-28T16:08:36.865Z,91.84
2022-09-28T16:11:31.324Z,92.41
2022-09-28T16:14:08.768Z,92.40
2022-09-28T16:16:46.958Z,91.89
2022-09-28T16:19:29.584Z,92.36
2022-09-28T16:21:59.870Z,92.12
2022-09-28T16:24:30.322Z,91.58
2022-09-28T16:27:09.230Z,92.22
2022-09-28T16:29:39.673Z,92.46
2022-09-28T16:32:24.889Z,92.79
2022-09-28T16:35:11.182Z,93.41
2022-09-28T16:37:42.589Z,92.81
2022-09-28T16:40:10.367Z,93.05
2022-09-28T16:42:38.772Z,93.42
2022-09-28T16:45:06.187Z,93.91
2022-09-28T16:47:36.258Z,93.33
2022-09-28T16:50:10.591Z,93.94
2022-09-28T16:52:59.820Z,93.64
2022-09-28T16:55:40.225Z,94.28
2022-09-28T16:58:08.094Z,94.83
2022-09-28T17:00:34.496Z,95.29
2022-09-28T17:03:00.929Z,95.33
2022-09-28T17:05:27.333Z,96.04
2022-09-28T17:08:02.510Z,96.03
2022-09-28T17:13:38.909Z,97.43
2022-09-28T17:16:10.946Z,97.75
2022-09-28T17:18:39.108Z,97.50
2022-09-28T17:21:09.448Z,97.51
2022-09-28T17:23:35.860Z,98.17
2022-09-28T17:26:03.948Z,98.77
2022-09-28T17:28:33.474Z,98.77
2022-09-28T17:30:59.993Z,100.00
2022-09-28T17:33:26.459Z,100.00
2022-09-28T17:36:00.099Z,100.00
2022-09-28T17:38:27.140Z,100.00
2022-09-28T17:40:53.609Z,98.88
2022-09-28T17:43:22.111Z,98.62
2022-09-28T17:45:49.033Z,98.74
2022-09-28T17:48:18.098Z,100.00
2022-09-28T17:50:46.652Z,99.71
2022-09-28T17:53:13.829Z,100.00
2022-09-28T17:55:40.843Z,100.00
2022-09-28T17:58:22.302Z,100.00
2022-09-28T18:00:51.163Z,100.00
2022-09-28T18:03:23.753Z,100.00
2022-09-28T18:05:57.953Z,100.00
2022-09-28T18:08:24.391Z,100.00
2022-09-28T18:10:50.917Z,100.00
2022-09-28T18:13:17.382Z,100.00
2022-09-28T18:15:43.958Z,100.00
2022-09-28T18:18:12.518Z,100.00
2022-09-28T18:20:39.480Z,100.00
2022-09-28T18:23:05.951Z,100.00
2022-09-28T18:25:32.483Z,100.00
2022-09-28T18:28:00.078Z,100.00
2022-09-28T18:30:28.011Z,100.00
2022-09-28T18:32:54.505Z,100.00
2022-09-28T18:35:23.225Z,100.00
2022-09-28T18:37:50.355Z,100.00
2022-09-28T18:40:17.286Z,100.00
2022-09-28T18:42:43.768Z,100.00
2022-09-28T18:45:11.203Z,100.00
2022-09-28T18:47:38.983Z,100.00
2022-09-28T18:50:06.299Z,100.00
2022-09-28T18:52:36.279Z,100.00
2022-09-28T18:55:02.979Z,100.00
2022-09-28T18:57:29.409Z,100.00
2022-09-28T18:59:55.848Z,100.00
2022-09-28T19:02:22.412Z,100.00
2022-09-28T19:04:48.841Z,100.00
2022-09-28T19:07:15.285Z,100.00
2022-09-28T19:09:43.938Z,100.00
2022-09-28T19:12:11.762Z,100.00
2022-09-28T19:14:38.220Z,100.00
2022-09-28T19:17:04.913Z,100.00
2022-09-28T19:19:31.675Z,100.00
2022-09-28T19:21:58.216Z,100.00
2022-09-28T19:24:25.342Z,100.00
2022-09-28T19:26:53.539Z,100.00
2022-09-28T19:29:20.550Z,100.00
2022-09-28T19:31:47.262Z,100.00
2022-09-28T19:34:14.413Z,100.00
2022-09-28T19:36:41.642Z,100.00
2022-09-28T19:39:08.026Z,100.00
2022-09-28T19:41:43.485Z,100.00
2022-09-28T19:44:24.345Z,100.00
2022-09-28T19:46:53.470Z,100.00
2022-09-28T19:49:22.085Z,100.00
2022-09-28T19:54:37.401Z,100.00
2022-09-28T19:57:07.761Z,100.00
2022-09-28T19:59:35.586Z,100.00
2022-09-28T20:02:03.104Z,100.00
2022-09-28T20:04:29.958Z,100.00
2022-09-28T20:06:56.352Z,100.00
2022-09-28T20:09:22.780Z,100.00
2022-09-28T20:11:51.250Z,100.00
2022-09-28T20:14:18.594Z,100.00
2022-09-28T20:16:46.170Z,100.00
2022-09-28T20:19:12.799Z,100.00
2022-09-28T20:21:39.222Z,100.00
2022-09-28T20:24:05.747Z,100.00
2022-09-28T20:26:37.329Z,100.00
2022-09-28T20:29:07.718Z,100.00
2022-09-28T20:31:38.792Z,100.00
2022-09-28T20:34:05.669Z,100.00
2022-09-28T20:36:32.229Z,100.00
2022-09-28T20:39:01.798Z,100.00
2022-09-28T20:41:34.682Z,100.00
2022-09-28T20:44:05.357Z,100.00
2022-09-28T20:46:32.892Z,100.00
2022-09-28T20:48:59.623Z,100.00
2022-09-28T20:51:26.372Z,100.00
2022-09-28T20:53:58.095Z,100.00
2022-09-28T20:56:28.938Z,100.00
2022-09-28T20:58:55.415Z,100.00
2022-09-28T21:01:24.105Z,100.00
2022-09-28T21:03:55.754Z,100.00
2022-09-28T21:06:25.319Z,100.00
2022-09-28T21:08:52.036Z,100.00
2022-09-28T21:11:20.695Z,100.00
2022-09-28T21:13:47.743Z,100.00
2022-09-28T21:16:16.017Z,100.00
2022-09-28T21:18:42.584Z,100.00
2022-09-28T21:21:14.047Z,100.00
2022-09-28T21:23:40.741Z,100.00
2022-09-28T21:26:10.000Z,100.00
2022-09-28T21:28:37.341Z,100.00
2022-09-28T21:31:09.011Z,100.00
2022-09-28T21:33:35.407Z,100.00
2022-09-28T21:36:04.010Z,100.00
2022-09-28T21:38:30.580Z,100.00
2022-09-28T21:40:58.510Z,100.00
2022-09-28T21:43:27.348Z,100.00
2022-09-28T21:45:54.865Z,100.00
2022-09-28T21:48:22.873Z,100.00
2022-09-28T21:51:00.288Z,100.00
2022-09-28T21:53:29.976Z,100.00
2022-09-28T21:55:57.406Z,100.00
2022-09-28T21:58:26.510Z,100.00
2022-09-28T22:01:15.382Z,100.00
2022-09-28T22:03:43.992Z,100.00
2022-09-28T22:06:11.192Z,100.00
2022-09-28T22:08:38.159Z,100.00
2022-09-28T22:11:13.213Z,100.00
2022-09-28T22:13:59.660Z,100.00
2022-09-28T22:16:29.570Z,100.00
2022-09-28T22:18:56.500Z,100.00
2022-09-28T22:21:32.590Z,100.00
2022-09-28T22:24:01.066Z,100.00
2022-09-28T22:26:29.498Z,100.00
2022-09-28T22:29:07.597Z,100.00
2022-09-28T22:31:37.424Z,100.00
2022-09-28T22:34:05.244Z,100.00
2022-09-28T22:36:31.829Z,100.00
2022-09-28T22:38:59.430Z,100.00
2022-09-28T22:41:26.164Z,100.00
2022-09-28T22:43:53.706Z,100.00
2022-09-28T22:46:22.913Z,100.00
2022-09-28T22:48:52.623Z,100.00
2022-09-28T22:51:19.742Z,100.00
2022-09-28T22:53:46.118Z,100.00
2022-09-28T22:56:18.508Z,100.00
2022-09-28T22:58:45.717Z,100.00
2022-09-28T23:01:32.385Z,100.00
2022-09-28T23:03:59.388Z,100.00
2022-09-28T23:06:27.720Z,100.00
2022-09-28T23:08:54.110Z,100.00
2022-09-28T23:11:20.607Z,100.00
2022-09-28T23:13:51.257Z,100.00
2022-09-28T23:16:18.561Z,100.00
2022-09-28T23:18:45.053Z,100.00
2022-09-28T23:21:16.703Z,100.00
2022-09-28T23:23:50.519Z,100.00
2022-09-28T23:26:19.956Z,100.00
2022-09-28T23:28:46.427Z,100.00
2022-09-28T23:31:16.713Z,100.00
2022-09-28T23:33:43.293Z,100.00
2022-09-28T23:36:09.940Z,100.00
2022-09-28T23:38:36.395Z,100.00
2022-09-28T23:41:02.841Z,100.00
2022-09-28T23:43:29.255Z,100.00
2022-09-28T23:45:55.633Z,100.00
2022-09-28T23:48:22.075Z,100.00
2022-09-28T23:50:48.709Z,100.00
2022-09-28T23:53:15.438Z,100.00
2022-09-28T23:55:42.828Z,100.00
2022-09-28T23:58:10.405Z,100.00
